Gridley, CA

7:42 PM PDT on May 22, 2015 (GMT -0700)
Live Oak (Pennington Ranch) | | Change Station
CLOSE
Current Station
Personal Weather Station
Location: Live Oak, CA
Elevation: 75 ft
Nearby Weather Stations

Elev 75 ft 39.28 °N, 121.67 °W | Updated 21 seconds ago

Partly Cloudy
Partly Cloudy
73.2 °F
Feels Like 77 °F
N
2.0
Wind Variable Wind from SE
Gusts 5.0 mph

Today
High -- | Low -- °F
--% Chance of Precip.
Yesterday
High -- | Low -- °F
Precip. -- in
5:47 AM 8:19 PM
Waxing Crescent, 26% visible
Pressure 29.92 in
Visibility 10.0 miles
Clouds Mostly Cloudy 10000 ft
Heat Index 77 °F
Dew Point 55 °F
Humidity 53%
Rainfall 0.00 in
Snow Depth Not available.
UV 0 out of 12
Pollen 6.80 out of 12
Air Quality Not available.
Flu Activity Sporadic
METAR KOVE 230153Z AUTO 17010KT 10SM BKN100 24/11 A2992 RMK AO2 SLP132 T02440106

More Conditions Fewer Conditions

Pressure 29.92 in
Visibility 10.0 miles
Clouds Mostly Cloudy 10000 ft
Heat Index 77 °F
Dew Point 55 °F
Humidity 53%
Rainfall 0.00 in
Snow Depth Not available.
UV 0 out of 12
Pollen 6.80 out of 12
Air Quality Not available.
Flu Activity Sporadic
METAR KOVE 230153Z AUTO 17010KT 10SM BKN100 24/11 A2992 RMK AO2 SLP132 T02440106

More Conditions Fewer Conditions

10-Day Weather Forecast

Almanac

Astronomy

May. 22, 2015 Rise Set
Actual Time
Civil Twilight
Nautical Twilight
Astronomical Twilight
Moon
Length of Visible Light
Length of Day
Tomorrow will be .
, % of the Moon is Illuminated

Today's Extremes

State Highs State Lows

Community

WunderPhotos

Upload Photos

1,823,371 photos uploaded!

WunderBlogs® & News

Nearby

Air Quality

  Air Quality AQ Index Pollutant
Not available.

Snow Depth

Station Depth Elevation

Earthquake Activity

City Distance Mag. Time & Date
Minimum magnitude displayed is 2.5.

Coastal Water Temperatures

Place Temperature

Stations

Nearby Weather Stations

Station Location Temp. Windchill Dew Point Humidity Wind Precip. Elev Updated Type